• Join FlightAware (Why Join?)
  • Login
  • US Flag 
07:34AM EST


 

Airport Tracker/Info


-or-


 

Live Flight TrackerFlight Track Log ✈ ACA831 ✈ 29-Apr-2013 ✈ CYUL - CYYZ

Flight Track Log - Related Links

Times and Time Zones

All times are in EDT time to prevent confusion due to time zone crossing. See the ACA831 flight status page for this flight to view local times or setup timezone preferences in your user account.

Time Position Orientation Groundspeed Altitude Reporting Facility
EDT Latitude Longitude Course Direction KTS MPH feet Rate Location/Type
04:26PM 45.4740 -73.7550 215° Southwest 170 196 100  Level FlightAware
04:26PM 45.4550 -73.7810 224° Southwest 173 199 2,200 3,600 Climbing FlightAware
04:27PM 45.4400 -73.8030 226° Southwest 202 232 3,400 2,520 Climbing FlightAware
04:27PM 45.4330 -73.8230 243° Southwest 232 267 3,900 3,300 Climbing FlightAware
04:27PM 45.4430 -73.8700 287° West 266 306 5,900 4,260 Climbing FlightAware
04:28PM 45.4660 -73.9120 308° West 270 311 8,200 4,440 Climbing FlightAware
04:28PM 45.4790 -73.9520 295° West 273 314 10,000 3,240 Climbing FlightAware
04:29PM 45.4710 -74.0380 262° West 328 377 12,000 2,880 Climbing FlightAware
04:30PM 45.4590 -74.1230 259° West 364 419 14,100 3,420 Climbing FlightAware
04:30PM 45.4470 -74.2190 260° West 382 440 16,600 3,720 Climbing FlightAware
04:31PM 45.4310 -74.3380 259° West 397 457 19,400 3,480 Climbing FlightAware
04:32PM 45.4180 -74.4390 260° West 411 473 21,600 3,060 Climbing FlightAware
04:32PM 45.4000 -74.5480 257° West 427 491 23,500 2,700 Climbing FlightAware
04:33PM 45.3760 -74.6860 256° West 449 517 25,500 2,640 Climbing FlightAware
04:34PM 45.3560 -74.8040 256° West 460 529 27,300 2,460 Climbing FlightAware
04:35PM 45.3340 -74.9330 256° West 473 544 29,000 2,580 Climbing FlightAware
04:35PM 45.3130 -75.0540 256° West 470 541 31,000 1,860 Climbing FlightAware
04:36PM 45.2900 -75.1910 257° West 483 556 31,700 660 Climbing FlightAware
04:37PM 45.2680 -75.3140 256° West 472 543 32,000 180 Climbing FlightAware
04:37PM 45.2480 -75.4330 257° West 457 526 32,000  Level FlightAware
04:38PM 45.2300 -75.5300 255° West 453 521 32,000  Level FlightAware
04:39PM 45.2050 -75.6740 256° West 452 520 32,000  Level FlightAware
04:39PM 45.1860 -75.7800 256° West 455 524 32,000  Level FlightAware
04:40PM 45.1630 -75.9050 255° West 457 526 32,000  Level FlightAware
04:41PM 45.1390 -76.0370 256° West 459 528 32,000  Level FlightAware
04:42PM 45.1050 -76.2120 255° West 460 529 32,000  Level FlightAware
04:42PM 45.0770 -76.2990 246° West 462 532 32,000  Level FlightAware
04:44PM 44.9850 -76.5330 241° Southwest 463 533 32,000  Level FlightAware
04:46PM 44.8690 -76.8220 241° Southwest 463 533 32,000  Level FlightAware
04:46PM 44.8270 -76.9270 241° Southwest 463 533 32,000  Level FlightAware
04:47PM 44.7810 -77.0420 241° Southwest 464 534 32,000  Level FlightAware
04:48PM 44.7400 -77.1440 241° Southwest 463 533 32,000  Level FlightAware
04:49PM 44.6950 -77.2540 240° Southwest 464 534 32,000  Level FlightAware
04:49PM 44.6480 -77.3690 240° Southwest 462 532 32,000  Level FlightAware
04:50PM 44.6030 -77.4780 240° Southwest 461 531 32,000  Level FlightAware
04:51PM 44.5560 -77.5930 240° Southwest 458 527 32,000  Level FlightAware
04:51PM 44.5120 -77.6970 239° Southwest 458 527 32,000  Level FlightAware
04:52PM 44.4700 -77.7990 240° Southwest 457 526 32,000 -180 Level FlightAware
04:53PM 44.4210 -77.9170 240° Southwest 453 521 31,800 -660 Descending FlightAware
04:53PM 44.3800 -78.0170 240° Southwest 452 520 31,100 -1,200 Descending FlightAware
04:54PM 44.3380 -78.1160 239° Southwest 445 512 30,200 -1,980 Descending FlightAware
04:55PM 44.2910 -78.2280 240° Southwest 435 501 28,300 -2,400 Descending FlightAware
04:56PM 44.2530 -78.3200 240° Southwest 428 493 26,800 -2,400 Descending FlightAware
04:56PM 44.2120 -78.4170 239° Southwest 421 484 25,100 -2,400 Descending FlightAware
04:57PM 44.1690 -78.5150 239° Southwest 413 475 23,400 -2,340 Descending FlightAware
04:58PM 44.1220 -78.6230 239° Southwest 404 465 21,600 -2,400 Descending FlightAware
04:58PM 44.0850 -78.7100 239° Southwest 396 456 20,000 -2,340 Descending FlightAware
04:59PM 44.0480 -78.7960 239° Southwest 389 448 18,500 -2,280 Descending FlightAware
05:00PM 44.0060 -78.8870 237° Southwest 385 443 16,800 -1,680 Descending FlightAware
05:00PM 43.9690 -78.9670 237° Southwest 350 403 16,200 -960 Descending FlightAware
05:01PM 43.9320 -79.0470 237° Southwest 307 353 15,500 -1,080 Descending FlightAware
05:02PM 43.9020 -79.1120 237° Southwest 301 346 14,700 -1,380 Descending FlightAware
05:03PM 43.8720 -79.1780 238° Southwest 294 338 13,700 -960 Descending FlightAware
05:03PM 43.8410 -79.2440 237° Southwest 263 303 13,400 -960 Descending FlightAware
05:04PM 43.8150 -79.3000 237° Southwest 251 289 12,400 -1,680 Descending FlightAware
05:05PM 43.7870 -79.3590 237° Southwest 249 287 11,100 -1,680 Descending FlightAware
05:05PM 43.7500 -79.3970 217° Southwest 239 275 10,100 -1,500 Descending FlightAware
05:06PM 43.7230 -79.4240 216° Southwest 241 277 9,400 -1,140 Descending FlightAware
05:06PM 43.7010 -79.4450 215° Southwest 237 273 9,100 -900 Descending FlightAware
05:07PM 43.6750 -79.4710 216° Southwest 234 269 8,600 -1,020 Descending FlightAware
05:07PM 43.6520 -79.4920 213° Southwest 233 268 8,200 -900 Descending FlightAware
05:08PM 43.6250 -79.5180 215° Southwest 230 265 7,800 -900 Descending FlightAware
05:08PM 43.5990 -79.5430 215° Southwest 228 262 7,300 -1,320 Descending FlightAware
05:09PM 43.5810 -79.5680 225° Southwest 226 260 6,600 -1,800 Descending FlightAware
05:09PM 43.5600 -79.6000 228° Southwest 224 258 5,700 -1,740 Descending FlightAware
05:10PM 43.5400 -79.6320 229° Southwest 222 255 4,900 -1,560 Descending FlightAware
05:10PM 43.5220 -79.6590 227° Southwest 222 255 4,300 -1,380 Descending FlightAware
05:10PM 43.5120 -79.6740 227° Southwest 222 255 4,000 -1,080 Descending FlightAware
05:11PM 43.4910 -79.7040 226° Southwest 218 251 3,500 -840 Descending FlightAware
05:11PM 43.4800 -79.7190 225° Southwest 210 242 3,400 -780 Descending FlightAware
05:11PM 43.4670 -79.7450 235° Southwest 202 232 3,000 -840 Descending FlightAware
05:12PM 43.4660 -79.7510 257° West 202 232 3,000  Level FlightAware
05:12PM 43.4800 -79.7790 305° West 212 244 3,000  Level FlightAware
05:12PM 43.4990 -79.7980 324° Northwest 212 244 3,000 -180 Level FlightAware
05:13PM 43.5080 -79.8020 342° North 215 247 2,900  Descending FlightAware
05:13PM 43.5290 -79.7950 14° North 219 252 3,000  Climbing FlightAware
05:13PM 43.5490 -79.7790 30° Northeast 199 229 2,900  Descending FlightAware
05:14PM 43.5590 -79.7660 43° Northeast 195 224 3,000 -180 Climbing FlightAware
05:14PM 43.5780 -79.7380 47° Northeast 194 223 2,800 -780 Descending FlightAware
05:14PM 43.5930 -79.7160 47° Northeast 188 216 2,300 -1,140 Descending FlightAware
05:15PM 43.6110 -79.6900 46° Northeast 183 211 1,800 -1,020 Descending FlightAware
05:15PM 43.6270 -79.6670 46° Northeast 159 183 1,300 -900 Descending FlightAware
05:16PM 43.6390 -79.6500 46° Northeast 140 161 1,000 -720 Descending FlightAware
05:16PM 43.6430 -79.6440 47° Northeast 139 160 900 -300 Descending FlightAware
05:17PM 43.6570 -79.6240 46° Northeast 138 159 800 -180 Descending FlightAware